Terminal Aerodrome Forecast
Issued by NWS

Home | Current Version | Previous Version | Text Only | Print | Product List | Glossary On
Versions: 1 2 3 4 5 6 7 8 9 10 11 12 13 14 15 16 17 18 19 20 21
000
FTUS41 KGYX 041326 AAA
TAFMHT
TAF AMD
KMHT 041326Z 0413/0512 08004KT P6SM BKN018 OVC024
     FM041600 03003KT P6SM OVC015
     FM042100 08009KT P6SM OVC010
     FM050000 08009KT 4SM -RA BR OVC005=

USA.gov is the U.S. government's official web portal to all federal, state and local government web resources and services.